createdAt,value
2019-04-19T00:00:14.796Z,5.40
2019-04-19T00:01:12.849Z,5.35
2019-04-19T00:02:13.557Z,5.37
2019-04-19T00:03:19.159Z,5.33
2019-04-19T00:04:15.029Z,5.29
2019-04-19T00:05:11.146Z,5.26
2019-04-19T00:06:16.241Z,5.25
2019-04-19T00:07:17.592Z,5.25
2019-04-19T00:08:28.840Z,5.23
2019-04-19T00:09:27.658Z,5.22
2019-04-19T00:10:23.887Z,5.19
2019-04-19T00:11:21.149Z,5.19
2019-04-19T00:12:21.920Z,5.16
2019-04-19T00:13:10.977Z,5.11
2019-04-19T00:14:10.747Z,5.09
2019-04-19T00:15:10.233Z,5.09
2019-04-19T00:16:10.912Z,5.06
2019-04-19T00:17:13.920Z,5.00
2019-04-19T00:18:14.691Z,4.98
2019-04-19T00:19:30.664Z,4.95
2019-04-19T00:20:32.755Z,4.92
2019-04-19T00:21:27.839Z,4.89
2019-04-19T00:22:28.672Z,4.87
2019-04-19T00:23:20.286Z,4.87
2019-04-19T00:24:10.173Z,4.91
2019-04-19T00:25:11.312Z,4.92
2019-04-19T00:26:10.636Z,4.93
2019-04-19T00:27:10.160Z,4.92
2019-04-19T00:28:14.871Z,4.89
2019-04-19T00:29:19.033Z,4.87
2019-04-19T00:30:24.093Z,4.87
2019-04-19T00:31:22.668Z,4.87
2019-04-19T00:32:24.133Z,4.85
2019-04-19T00:33:18.100Z,4.82
2019-04-19T00:34:10.453Z,4.81
2019-04-19T00:35:11.542Z,4.84
2019-04-19T00:36:12.587Z,4.85
2019-04-19T00:37:10.256Z,4.84
2019-04-19T00:38:14.572Z,4.81
2019-04-19T00:39:23.740Z,4.78
2019-04-19T00:40:26.720Z,4.78
2019-04-19T00:41:27.820Z,4.77
2019-04-19T00:42:25.861Z,4.74
2019-04-19T00:43:27.771Z,4.77
2019-04-19T00:44:37.549Z,4.85
2019-04-19T00:45:26.466Z,4.84
2019-04-19T00:46:27.909Z,4.89
2019-04-19T00:47:30.074Z,4.88
2019-04-19T00:48:33.415Z,4.84
2019-04-19T00:49:21.876Z,4.81
2019-04-19T00:50:21.319Z,4.81
2019-04-19T00:51:20.600Z,4.75
2019-04-19T00:52:33.038Z,4.74
2019-04-19T00:53:24.080Z,4.69
2019-04-19T00:54:17.875Z,4.67
2019-04-19T00:55:16.500Z,4.67
2019-04-19T00:56:16.729Z,4.71
2019-04-19T00:57:19.187Z,4.73
2019-04-19T00:58:17.665Z,4.71
2019-04-19T00:59:14.569Z,4.69
2019-04-19T01:00:17.307Z,4.69
2019-04-19T01:01:17.164Z,4.70
2019-04-19T01:02:15.638Z,4.69
2019-04-19T01:03:13.426Z,4.74
2019-04-19T01:04:13.440Z,4.75
2019-04-19T01:05:14.630Z,4.80
2019-04-19T01:06:15.041Z,4.75
2019-04-19T01:07:20.085Z,4.78
2019-04-19T01:08:14.026Z,4.80
2019-04-19T01:09:26.734Z,4.80
2019-04-19T01:10:29.260Z,4.78
2019-04-19T01:11:23.483Z,4.77
2019-04-19T01:12:20.671Z,4.73
2019-04-19T01:13:18.077Z,4.74
2019-04-19T01:14:21.669Z,4.71
2019-04-19T01:15:22.377Z,4.70
2019-04-19T01:16:21.144Z,4.69
2019-04-19T01:17:22.700Z,4.67
2019-04-19T01:18:24.539Z,4.66
2019-04-19T01:19:14.666Z,4.66
2019-04-19T01:20:12.184Z,4.69
2019-04-19T01:21:11.329Z,4.64
2019-04-19T01:22:17.408Z,4.67
2019-04-19T01:23:13.807Z,4.64
2019-04-19T01:24:11.202Z,4.62
2019-04-19T01:25:17.077Z,4.67
2019-04-19T01:26:13.638Z,4.71
2019-04-19T01:27:13.272Z,4.70
2019-04-19T01:28:15.972Z,4.71
2019-04-19T01:29:12.861Z,4.71
2019-04-19T01:30:10.494Z,4.69
2019-04-19T01:31:16.439Z,4.62
2019-04-19T01:32:13.167Z,4.62
2019-04-19T01:33:10.607Z,4.60
2019-04-19T01:34:16.476Z,4.59
2019-04-19T01:35:15.304Z,4.54
2019-04-19T01:36:10.447Z,4.51
2019-04-19T01:37:16.258Z,4.50
2019-04-19T01:38:12.306Z,4.48
2019-04-19T01:39:25.483Z,4.46
2019-04-19T01:40:26.157Z,4.47
2019-04-19T01:41:27.075Z,4.50
2019-04-19T01:42:32.325Z,4.52
2019-04-19T01:43:33.437Z,4.54
2019-04-19T01:44:29.022Z,4.51
2019-04-19T01:45:26.881Z,4.48
2019-04-19T01:46:31.311Z,4.46
2019-04-19T01:47:30.388Z,4.47
2019-04-19T01:48:32.636Z,4.46
2019-04-19T01:49:21.039Z,4.44
2019-04-19T01:50:24.584Z,4.43
2019-04-19T01:51:33.645Z,4.43
2019-04-19T01:52:37.092Z,4.41
2019-04-19T01:53:29.376Z,4.40
2019-04-19T01:54:26.708Z,4.37
2019-04-19T01:55:18.884Z,4.36
2019-04-19T01:56:14.821Z,4.33
2019-04-19T01:57:12.727Z,4.28
2019-04-19T01:58:14.625Z,4.26
2019-04-19T01:59:10.304Z,4.26
2019-04-19T02:00:12.941Z,4.22
2019-04-19T02:01:16.530Z,4.19
2019-04-19T02:02:14.342Z,4.18
2019-04-19T02:03:11.115Z,4.18
2019-04-19T02:04:15.526Z,4.17
2019-04-19T02:05:14.551Z,4.15
2019-04-19T02:06:13.945Z,4.18
2019-04-19T02:07:15.809Z,4.22
2019-04-19T02:08:14.084Z,4.25
2019-04-19T02:09:11.239Z,4.25
2019-04-19T02:10:21.495Z,4.26
2019-04-19T02:11:23.222Z,4.30
2019-04-19T02:12:26.067Z,4.28
2019-04-19T02:13:21.276Z,4.26
2019-04-19T02:14:18.691Z,4.25
2019-04-19T02:15:14.879Z,4.24
2019-04-19T02:16:16.965Z,4.21
2019-04-19T02:17:13.158Z,4.17
2019-04-19T02:18:11.443Z,4.14
2019-04-19T02:19:16.301Z,4.10
2019-04-19T02:20:11.993Z,4.10
2019-04-19T02:21:12.926Z,4.08
2019-04-19T02:22:16.065Z,4.17
2019-04-19T02:23:13.129Z,4.12
2019-04-19T02:24:10.661Z,4.10
2019-04-19T02:25:15.958Z,4.06
2019-04-19T02:26:14.673Z,4.03
2019-04-19T02:27:13.446Z,4.03
2019-04-19T02:28:17.276Z,3.99
2019-04-19T02:29:14.555Z,3.95
2019-04-19T02:30:19.553Z,3.93
2019-04-19T02:31:31.969Z,3.95
2019-04-19T02:33:38.943Z,3.99
2019-04-19T02:34:37.079Z,3.95
2019-04-19T02:35:34.941Z,3.95
2019-04-19T02:36:47.926Z,3.93
2019-04-19T02:37:31.613Z,3.95
2019-04-19T02:38:36.373Z,4.00
2019-04-19T02:39:56.134Z,4.03
2019-04-19T02:40:52.322Z,4.00
2019-04-19T02:43:45.858Z,4.01
2019-04-19T02:44:45.827Z,4.03
2019-04-19T02:46:48.093Z,3.99
2019-04-19T02:51:00.701Z,4.00
2019-04-19T02:51:38.783Z,4.01
2019-04-19T02:52:40.940Z,4.00
2019-04-19T02:53:42.934Z,4.00
2019-04-19T02:54:40.807Z,3.96
2019-04-19T02:55:40.953Z,3.93
2019-04-19T02:56:59.796Z,3.89
2019-04-19T02:58:33.697Z,3.92
2019-04-19T02:59:47.380Z,3.93
2019-04-19T03:01:44.809Z,3.90
2019-04-19T03:02:50.632Z,3.89
2019-04-19T03:03:53.076Z,3.87
2019-04-19T03:04:45.608Z,3.85
2019-04-19T03:05:31.902Z,3.84
2019-04-19T03:06:25.317Z,3.81
2019-04-19T03:07:11.321Z,3.77
2019-04-19T03:08:10.553Z,3.76
2019-04-19T03:09:11.334Z,3.76
2019-04-19T03:10:15.358Z,3.77
2019-04-19T03:11:28.147Z,3.74
2019-04-19T03:12:32.095Z,3.69
2019-04-19T03:13:25.987Z,3.66
2019-04-19T03:14:20.847Z,3.65
2019-04-19T03:15:35.079Z,3.62
2019-04-19T03:16:32.436Z,3.58
2019-04-19T03:17:30.858Z,3.61
2019-04-19T03:19:23.404Z,3.61
2019-04-19T03:20:26.266Z,3.59
2019-04-19T03:21:25.256Z,3.68
2019-04-19T03:22:45.498Z,3.64
2019-04-19T03:23:23.309Z,3.65
2019-04-19T03:24:23.888Z,3.64
2019-04-19T03:25:24.046Z,3.61
2019-04-19T03:26:26.718Z,3.58
2019-04-19T03:27:17.961Z,3.59
2019-04-19T03:28:22.022Z,3.59
2019-04-19T03:29:20.664Z,3.55
2019-04-19T03:30:29.926Z,3.54
2019-04-19T03:31:40.919Z,3.54
2019-04-19T03:34:42.495Z,3.44
2019-04-19T03:35:28.497Z,3.43
2019-04-19T03:36:24.614Z,3.43
2019-04-19T03:37:32.952Z,3.43
2019-04-19T03:38:30.216Z,3.39
2019-04-19T03:39:29.815Z,3.36
2019-04-19T03:40:35.055Z,3.36
2019-04-19T03:41:40.633Z,3.36
2019-04-19T03:42:35.204Z,3.33
2019-04-19T03:43:39.566Z,3.31
2019-04-19T03:44:25.429Z,3.28
2019-04-19T03:45:28.693Z,3.26
2019-04-19T03:46:31.015Z,3.21
2019-04-19T03:47:27.945Z,3.17
2019-04-19T03:48:27.102Z,3.17
2019-04-19T03:50:26.658Z,3.16
2019-04-19T03:51:31.231Z,3.22
2019-04-19T03:52:26.349Z,3.21
2019-04-19T03:53:39.483Z,3.21
2019-04-19T03:54:30.063Z,3.25
2019-04-19T03:55:26.004Z,3.25
2019-04-19T03:56:28.822Z,3.24
2019-04-19T03:57:23.350Z,3.21
2019-04-19T03:58:14.947Z,3.16
2019-04-19T03:59:10.312Z,3.13
2019-04-19T04:00:11.114Z,3.13
2019-04-19T04:01:10.797Z,3.20
2019-04-19T04:02:10.391Z,3.24
2019-04-19T04:03:19.535Z,3.22
2019-04-19T04:04:16.697Z,3.25
2019-04-19T04:05:13.010Z,3.25
2019-04-19T04:06:12.415Z,3.22
2019-04-19T04:07:15.410Z,3.20
2019-04-19T04:08:16.323Z,3.21
2019-04-19T04:09:11.358Z,3.21
2019-04-19T04:10:15.058Z,3.16
2019-04-19T04:11:15.111Z,3.12
2019-04-19T04:12:24.900Z,3.07
2019-04-19T04:13:20.238Z,3.07
2019-04-19T04:14:21.713Z,3.10
2019-04-19T04:15:19.710Z,3.09
2019-04-19T04:16:23.013Z,3.09
2019-04-19T04:17:10.295Z,3.06
2019-04-19T04:18:11.257Z,3.10
2019-04-19T04:19:10.341Z,3.13
2019-04-19T04:20:11.375Z,3.07
2019-04-19T04:21:10.311Z,3.06
2019-04-19T04:22:18.041Z,3.05
2019-04-19T04:23:15.518Z,3.06
2019-04-19T04:24:20.152Z,3.06
2019-04-19T04:25:19.793Z,3.06
2019-04-19T04:26:14.804Z,3.02
2019-04-19T04:27:21.508Z,2.98
2019-04-19T04:28:26.366Z,2.96
2019-04-19T04:29:20.558Z,2.94
2019-04-19T04:30:21.976Z,2.92
2019-04-19T04:31:20.609Z,2.94
2019-04-19T04:32:19.613Z,2.88
2019-04-19T04:33:26.247Z,2.87
2019-04-19T04:34:29.356Z,2.87
2019-04-19T04:35:29.335Z,2.91
2019-04-19T04:36:30.584Z,2.95
2019-04-19T04:37:28.336Z,2.94
2019-04-19T04:38:19.461Z,2.94
2019-04-19T04:39:11.319Z,2.91
2019-04-19T04:40:10.545Z,2.90
2019-04-19T04:41:15.648Z,2.90
2019-04-19T04:42:20.163Z,2.85
2019-04-19T04:43:28.505Z,2.85
2019-04-19T04:44:29.538Z,2.87
2019-04-19T04:45:30.158Z,2.91
2019-04-19T04:46:35.383Z,2.88
2019-04-19T04:47:28.754Z,2.85
2019-04-19T04:48:36.392Z,2.90
2019-04-19T04:49:34.447Z,2.90
2019-04-19T04:50:42.301Z,2.87
2019-04-19T04:51:31.046Z,2.84
2019-04-19T04:52:20.144Z,2.83
2019-04-19T04:53:10.919Z,2.85
2019-04-19T04:54:10.388Z,2.90
2019-04-19T04:55:11.430Z,2.92
2019-04-19T04:56:11.807Z,2.94
2019-04-19T04:57:14.584Z,3.01
2019-04-19T04:58:18.587Z,3.06
2019-04-19T04:59:15.351Z,3.07
2019-04-19T05:00:11.777Z,3.10
2019-04-19T05:01:15.280Z,3.13
2019-04-19T05:02:30.177Z,3.12
2019-04-19T05:03:31.065Z,3.10
2019-04-19T05:04:26.292Z,3.14
2019-04-19T05:05:31.576Z,3.13
2019-04-19T05:06:28.176Z,3.14
2019-04-19T05:07:32.841Z,3.16
2019-04-19T05:08:31.475Z,3.14
2019-04-19T05:09:27.992Z,3.22
2019-04-19T05:10:28.148Z,3.26
2019-04-19T05:11:24.479Z,3.28
2019-04-19T05:12:36.403Z,3.31
2019-04-19T05:13:30.547Z,3.32
2019-04-19T05:14:28.660Z,3.33
2019-04-19T05:15:43.201Z,3.33
2019-04-19T05:16:43.222Z,3.36
2019-04-19T05:17:39.240Z,3.39
2019-04-19T05:18:29.404Z,3.51
2019-04-19T05:19:30.577Z,3.57
2019-04-19T05:20:28.816Z,3.68
2019-04-19T05:21:27.584Z,3.81
2019-04-19T05:22:24.679Z,3.93
2019-04-19T05:23:27.788Z,4.03
2019-04-19T05:24:33.800Z,4.10
2019-04-19T05:25:36.207Z,4.11
2019-04-19T05:26:49.562Z,4.15
2019-04-19T05:27:33.334Z,4.21
2019-04-19T05:28:27.799Z,4.26
2019-04-19T05:29:19.923Z,4.32
2019-04-19T05:30:11.262Z,4.33
2019-04-19T05:31:16.497Z,4.35
2019-04-19T05:32:21.095Z,4.36
2019-04-19T05:33:20.875Z,4.36
2019-04-19T05:34:26.166Z,4.46
2019-04-19T05:35:23.732Z,4.50
2019-04-19T05:36:30.973Z,4.52
2019-04-19T05:37:22.874Z,4.51
2019-04-19T05:38:30.545Z,4.55
2019-04-19T05:39:31.480Z,4.55
2019-04-19T05:40:27.957Z,4.59
2019-04-19T05:41:28.319Z,4.63
2019-04-19T05:42:24.525Z,4.70
2019-04-19T05:43:50.099Z,4.74
2019-04-19T05:44:37.574Z,4.80
2019-04-19T05:46:39.142Z,4.92
2019-04-19T05:47:28.324Z,4.95
2019-04-19T05:48:24.612Z,5.03
2019-04-19T05:49:31.282Z,5.15
2019-04-19T05:50:30.118Z,5.30
2019-04-19T05:51:35.785Z,5.52
2019-04-19T05:52:30.507Z,5.70
2019-04-19T05:53:22.161Z,6.02
2019-04-19T05:54:13.513Z,6.33
2019-04-19T05:55:11.555Z,6.56
2019-04-19T05:56:11.474Z,6.74
2019-04-19T05:57:31.942Z,6.90
2019-04-19T05:58:20.275Z,7.12
2019-04-19T05:59:17.554Z,7.31
2019-04-19T06:00:25.988Z,7.56
2019-04-19T06:01:34.268Z,7.71
2019-04-19T06:02:21.903Z,7.98
2019-04-19T06:03:21.170Z,8.24
2019-04-19T06:04:29.126Z,8.51
2019-04-19T06:05:36.382Z,8.68
2019-04-19T06:06:31.903Z,8.82
2019-04-19T06:07:27.464Z,8.94
2019-04-19T06:08:20.240Z,9.08
2019-04-19T06:09:11.172Z,9.31
2019-04-19T06:10:12.318Z,9.50
2019-04-19T06:11:10.768Z,9.57
2019-04-19T06:12:17.820Z,9.64
2019-04-19T06:13:13.960Z,9.76
2019-04-19T06:14:35.884Z,9.86
2019-04-19T06:15:33.357Z,9.93
2019-04-19T06:16:25.663Z,10.08
2019-04-19T06:17:27.816Z,10.28
2019-04-19T06:18:25.303Z,10.36
2019-04-19T06:19:30.219Z,10.43
2019-04-19T06:20:26.482Z,10.60
2019-04-19T06:21:28.863Z,10.60
2019-04-19T06:22:29.810Z,10.72
2019-04-19T06:23:29.714Z,10.88
2019-04-19T06:24:31.980Z,11.05
2019-04-19T06:25:35.590Z,11.29
2019-04-19T06:27:35.636Z,11.60
2019-04-19T06:28:30.715Z,11.76
2019-04-19T06:29:41.252Z,11.94
2019-04-19T06:30:30.331Z,12.02
2019-04-19T06:31:31.457Z,11.98
2019-04-19T06:32:36.290Z,12.14
2019-04-19T06:33:29.323Z,12.35
2019-04-19T06:34:30.939Z,12.37
2019-04-19T06:35:22.583Z,12.51
2019-04-19T06:36:12.524Z,12.71
2019-04-19T06:37:18.042Z,12.87
2019-04-19T06:38:11.620Z,12.84
2019-04-19T06:39:10.418Z,13.05
2019-04-19T06:40:19.103Z,13.12
2019-04-19T06:41:15.124Z,13.27
2019-04-19T06:42:13.290Z,13.50
2019-04-19T06:43:15.583Z,13.59
2019-04-19T06:44:20.936Z,13.77
2019-04-19T06:45:26.712Z,13.98
2019-04-19T06:46:26.819Z,14.02
2019-04-19T06:47:19.843Z,14.00
2019-04-19T06:48:15.002Z,14.07
2019-04-19T06:49:16.959Z,14.27
2019-04-19T06:50:10.975Z,14.44
2019-04-19T06:51:17.418Z,14.53
2019-04-19T06:52:17.898Z,14.69
2019-04-19T06:53:10.508Z,14.69
2019-04-19T06:54:12.703Z,14.71
2019-04-19T06:55:16.553Z,14.82
2019-04-19T06:56:19.237Z,14.83
2019-04-19T06:57:21.113Z,14.89
2019-04-19T06:58:15.982Z,14.98
2019-04-19T06:59:22.418Z,15.02
2019-04-19T07:00:23.327Z,14.95
2019-04-19T07:01:21.658Z,15.10
2019-04-19T07:02:11.346Z,15.11
2019-04-19T07:03:11.347Z,15.13
2019-04-19T07:04:10.713Z,15.25
2019-04-19T07:05:23.004Z,15.33
2019-04-19T07:06:26.984Z,15.37
2019-04-19T07:07:29.893Z,15.47
2019-04-19T07:08:53.165Z,15.61
2019-04-19T07:09:37.573Z,15.65
2019-04-19T07:10:36.888Z,15.69
2019-04-19T07:11:32.867Z,15.58
2019-04-19T07:12:31.215Z,15.39
2019-04-19T07:13:25.015Z,15.37
2019-04-19T07:14:17.205Z,15.53
2019-04-19T07:15:48.576Z,15.65
2019-04-19T07:16:30.220Z,15.70
2019-04-19T07:17:26.318Z,15.90
2019-04-19T07:18:25.025Z,16.09
2019-04-19T07:19:30.210Z,16.11
2019-04-19T07:20:24.385Z,16.17
2019-04-19T07:21:31.602Z,16.31
2019-04-19T07:22:22.824Z,16.18
2019-04-19T07:23:33.122Z,16.06
2019-04-19T07:24:33.532Z,16.07
2019-04-19T07:25:36.816Z,16.35
2019-04-19T07:26:33.765Z,16.63
2019-04-19T07:27:22.533Z,16.66
2019-04-19T07:28:18.431Z,16.77
2019-04-19T07:29:10.672Z,16.91
2019-04-19T07:30:11.892Z,17.03
2019-04-19T07:31:12.851Z,17.09
2019-04-19T07:32:10.575Z,17.14
2019-04-19T07:33:16.859Z,17.29
2019-04-19T07:34:28.908Z,17.25
2019-04-19T07:35:32.121Z,17.14
2019-04-19T07:36:28.657Z,17.08
2019-04-19T07:37:28.119Z,17.02
2019-04-19T07:38:47.777Z,17.08
2019-04-19T07:39:28.150Z,17.16
2019-04-19T07:40:33.853Z,17.35
2019-04-19T07:41:26.857Z,17.62
2019-04-19T07:42:30.469Z,17.91
2019-04-19T07:43:25.790Z,18.13
2019-04-19T07:44:22.253Z,18.14
2019-04-19T07:45:13.919Z,18.27
2019-04-19T07:46:31.402Z,18.38
2019-04-19T07:47:24.039Z,18.52
2019-04-19T07:48:13.578Z,18.64
2019-04-19T07:49:12.695Z,18.75
2019-04-19T07:50:17.917Z,18.92
2019-04-19T07:51:15.948Z,19.09
2019-04-19T07:52:19.352Z,19.25
2019-04-19T07:53:14.775Z,19.31
2019-04-19T07:54:15.699Z,19.38
2019-04-19T07:55:13.609Z,19.29
2019-04-19T07:56:21.841Z,19.31
2019-04-19T07:57:42.205Z,19.40
2019-04-19T07:58:38.874Z,19.46
2019-04-19T07:59:31.875Z,19.47
2019-04-19T08:01:45.789Z,19.50
2019-04-19T08:05:36.189Z,19.60
2019-04-19T08:06:53.962Z,19.72
2019-04-19T08:08:13.737Z,19.66
2019-04-19T08:09:34.678Z,19.95
2019-04-19T08:10:40.716Z,20.13
2019-04-19T08:13:48.585Z,20.46
2019-04-19T08:15:37.047Z,20.50
2019-04-19T08:17:26.266Z,20.35
2019-04-19T08:27:22.754Z,20.47
2019-04-19T08:28:20.730Z,20.64
2019-04-19T08:29:22.016Z,20.68
2019-04-19T08:30:16.693Z,20.84
2019-04-19T08:31:12.277Z,20.91
2019-04-19T08:32:11.108Z,20.95
2019-04-19T08:33:10.626Z,21.05
2019-04-19T08:34:15.651Z,21.13
2019-04-19T08:35:17.054Z,20.91
2019-04-19T08:36:13.807Z,20.93
2019-04-19T08:37:19.812Z,20.94
2019-04-19T08:38:17.518Z,20.87
2019-04-19T08:39:27.417Z,20.91
2019-04-19T08:40:27.936Z,20.84
2019-04-19T08:41:21.414Z,20.99
2019-04-19T08:42:30.933Z,21.02
2019-04-19T08:43:25.310Z,21.08
2019-04-19T08:44:27.919Z,21.20
2019-04-19T08:45:15.209Z,21.36
2019-04-19T08:46:11.228Z,21.43
2019-04-19T08:47:20.410Z,21.54
2019-04-19T08:48:17.469Z,21.56
2019-04-19T08:49:18.826Z,21.73
2019-04-19T08:50:13.455Z,21.65
2019-04-19T08:51:10.461Z,21.60
2019-04-19T08:52:15.300Z,21.64
2019-04-19T08:53:30.591Z,21.71
2019-04-19T08:54:31.403Z,21.78
2019-04-19T08:55:29.091Z,21.75
2019-04-19T08:56:23.021Z,21.78
2019-04-19T08:57:14.734Z,21.71
2019-04-19T08:58:29.814Z,21.83
2019-04-19T08:59:35.830Z,21.94
2019-04-19T09:00:40.854Z,21.89
2019-04-19T09:01:34.177Z,21.71
2019-04-19T09:02:29.010Z,21.83
2019-04-19T09:03:37.503Z,22.02
2019-04-19T09:04:30.409Z,22.23
2019-04-19T09:05:28.654Z,22.23
2019-04-19T09:07:15.914Z,22.08
2019-04-19T09:08:34.030Z,22.17
2019-04-19T09:09:32.695Z,22.21
2019-04-19T09:10:33.469Z,22.19
2019-04-19T09:11:24.786Z,22.34
2019-04-19T09:12:25.423Z,22.41
2019-04-19T09:13:34.013Z,22.49
2019-04-19T09:14:38.188Z,22.46
2019-04-19T09:15:31.972Z,22.34
2019-04-19T09:16:26.431Z,22.23
2019-04-19T09:17:47.522Z,22.27
2019-04-19T09:18:41.504Z,22.34
2019-04-19T09:19:45.786Z,22.48
2019-04-19T09:20:30.324Z,22.68
2019-04-19T09:21:23.014Z,22.80
2019-04-19T09:22:25.764Z,22.79
2019-04-19T09:23:23.738Z,22.75
2019-04-19T09:24:16.983Z,22.83
2019-04-19T09:25:24.367Z,22.93
2019-04-19T09:26:30.390Z,22.94
2019-04-19T09:27:38.468Z,22.95
2019-04-19T09:29:33.625Z,23.09
2019-04-19T09:30:27.737Z,23.20
2019-04-19T09:31:21.456Z,23.28
2019-04-19T09:32:17.497Z,23.04
2019-04-19T09:33:19.214Z,22.65
2019-04-19T09:34:15.462Z,22.82
2019-04-19T09:35:12.748Z,22.86
2019-04-19T09:36:15.415Z,22.82
2019-04-19T09:37:21.262Z,22.95
2019-04-19T09:38:20.951Z,23.05
2019-04-19T09:39:24.989Z,23.11
2019-04-19T09:40:15.297Z,23.16
2019-04-19T09:41:19.569Z,23.33
2019-04-19T09:42:24.368Z,23.39
2019-04-19T09:43:24.081Z,23.51
2019-04-19T09:44:19.517Z,23.49
2019-04-19T09:45:10.520Z,23.28
2019-04-19T09:46:10.581Z,23.02
2019-04-19T09:47:10.578Z,23.02
2019-04-19T09:48:31.692Z,23.13
2019-04-19T09:49:24.942Z,23.23
2019-04-19T09:50:29.727Z,23.19
2019-04-19T09:51:30.180Z,23.27
2019-04-19T09:52:40.041Z,23.33
2019-04-19T09:53:35.636Z,23.28
2019-04-19T09:54:32.297Z,23.23
2019-04-19T09:55:32.553Z,23.09
2019-04-19T09:56:27.936Z,23.09
2019-04-19T09:57:29.012Z,23.05
2019-04-19T09:58:26.496Z,23.23
2019-04-19T09:59:20.513Z,23.26
2019-04-19T10:00:16.609Z,23.06
2019-04-19T10:01:10.698Z,23.00
2019-04-19T10:02:15.246Z,23.05
2019-04-19T10:03:22.722Z,22.94
2019-04-19T10:04:10.914Z,23.11
2019-04-19T10:05:10.576Z,22.75
2019-04-19T10:06:11.035Z,22.57
2019-04-19T10:07:11.217Z,22.48
2019-04-19T10:08:11.575Z,22.54
2019-04-19T10:09:15.365Z,22.77
2019-04-19T10:10:13.104Z,23.04
2019-04-19T10:11:10.778Z,23.20
2019-04-19T10:12:11.296Z,23.38
2019-04-19T10:13:11.847Z,23.56
2019-04-19T10:14:12.935Z,23.61
2019-04-19T10:15:11.731Z,23.74
2019-04-19T10:16:10.568Z,23.76
2019-04-19T10:17:12.248Z,23.89
2019-04-19T10:18:10.642Z,23.89
2019-04-19T10:19:11.452Z,23.80
2019-04-19T10:20:10.913Z,23.64
2019-04-19T10:21:19.320Z,23.65
2019-04-19T10:22:10.586Z,23.82
2019-04-19T10:23:11.263Z,23.98
2019-04-19T10:24:14.832Z,24.00
2019-04-19T10:25:11.348Z,23.86
2019-04-19T10:26:12.330Z,23.82
2019-04-19T10:27:10.836Z,23.79
2019-04-19T10:28:11.827Z,23.86
2019-04-19T10:29:19.945Z,23.97
2019-04-19T10:31:11.423Z,24.20
2019-04-19T10:32:10.780Z,24.40
2019-04-19T10:33:10.834Z,24.53
2019-04-19T10:34:10.610Z,24.53
2019-04-19T10:35:11.520Z,24.45
2019-04-19T10:36:10.828Z,24.38
2019-04-19T10:37:10.951Z,24.30
2019-04-19T10:38:11.659Z,24.33
2019-04-19T10:39:11.816Z,24.25
2019-04-19T10:40:10.680Z,24.33
2019-04-19T10:41:11.602Z,24.22
2019-04-19T10:42:10.612Z,24.12
2019-04-19T10:43:11.451Z,23.94
2019-04-19T10:44:15.437Z,23.87
2019-04-19T10:45:12.045Z,23.94
2019-04-19T10:46:10.954Z,23.93
2019-04-19T10:47:10.672Z,23.96
2019-04-19T10:48:11.792Z,23.97
2019-04-19T10:49:17.338Z,24.05
2019-04-19T10:50:20.676Z,23.96
2019-04-19T10:51:12.178Z,23.96
2019-04-19T10:52:10.601Z,24.02
2019-04-19T10:53:10.598Z,24.01
2019-04-19T10:54:10.800Z,23.71
2019-04-19T10:55:10.699Z,23.57
2019-04-19T10:56:10.609Z,23.54
2019-04-19T10:57:10.565Z,23.68
2019-04-19T10:58:11.638Z,23.90
2019-04-19T10:59:10.596Z,24.00
2019-04-19T11:00:11.337Z,23.74
2019-04-19T11:01:11.411Z,23.75
2019-04-19T11:02:10.701Z,23.56
2019-04-19T11:03:10.784Z,23.68
2019-04-19T11:04:11.067Z,23.85
2019-04-19T11:05:11.207Z,23.85
2019-04-19T11:06:10.631Z,23.90
2019-04-19T11:07:11.703Z,23.68
2019-04-19T11:08:10.690Z,23.57
2019-04-19T11:09:10.690Z,23.60
2019-04-19T11:10:11.876Z,23.75
2019-04-19T11:11:11.699Z,23.91
2019-04-19T11:12:10.640Z,24.05
2019-04-19T11:13:10.792Z,24.16
2019-04-19T11:14:10.692Z,23.75
2019-04-19T11:15:10.849Z,23.78
2019-04-19T11:16:10.633Z,23.79
2019-04-19T11:17:11.620Z,23.76
2019-04-19T11:18:11.767Z,23.68
2019-04-19T11:19:17.452Z,23.74
2019-04-19T11:20:22.798Z,23.93
2019-04-19T11:21:11.596Z,24.22
2019-04-19T11:22:11.846Z,24.49
2019-04-19T11:23:11.375Z,24.49
2019-04-19T11:24:11.660Z,24.56
2019-04-19T11:25:10.644Z,24.77
2019-04-19T11:26:10.638Z,24.71
2019-04-19T11:27:11.052Z,24.63
2019-04-19T11:28:11.120Z,24.81
2019-04-19T11:29:11.086Z,24.86
2019-04-19T11:30:10.948Z,24.75
2019-04-19T11:31:10.992Z,24.82
2019-04-19T11:32:10.643Z,24.86
2019-04-19T11:33:10.918Z,24.83
2019-04-19T11:34:11.121Z,24.90
2019-04-19T11:35:11.734Z,24.90
2019-04-19T11:36:11.167Z,24.79
2019-04-19T11:37:13.438Z,24.78
2019-04-19T11:38:11.178Z,24.86
2019-04-19T11:39:10.707Z,24.89
2019-04-19T11:40:11.171Z,25.01
2019-04-19T11:41:11.218Z,24.81
2019-04-19T11:42:10.613Z,24.81
2019-04-19T11:43:11.968Z,24.83
2019-04-19T11:44:17.360Z,24.74
2019-04-19T11:45:11.970Z,24.70
2019-04-19T11:46:11.815Z,24.75
2019-04-19T11:47:11.120Z,24.71
2019-04-19T11:48:11.016Z,24.49
2019-04-19T11:49:23.694Z,24.49
2019-04-19T11:50:11.704Z,24.49
2019-04-19T11:51:11.789Z,24.38
2019-04-19T11:52:12.245Z,24.38
2019-04-19T11:53:10.722Z,24.54
2019-04-19T11:54:10.664Z,24.68
2019-04-19T11:55:10.684Z,24.90
2019-04-19T11:56:10.667Z,25.12
2019-04-19T11:57:10.896Z,25.35
2019-04-19T11:58:10.653Z,25.33
2019-04-19T11:59:10.904Z,25.37
2019-04-19T12:00:11.536Z,25.40
2019-04-19T12:01:12.082Z,25.26
2019-04-19T12:02:10.761Z,25.26
2019-04-19T12:03:11.909Z,25.02
2019-04-19T12:04:10.652Z,24.77
2019-04-19T12:05:16.493Z,24.41
2019-04-19T12:06:12.042Z,24.51
2019-04-19T12:07:10.734Z,24.71
2019-04-19T12:08:10.693Z,24.86
2019-04-19T12:09:10.648Z,24.90
2019-04-19T12:10:10.658Z,24.98
2019-04-19T12:11:10.667Z,24.79
2019-04-19T12:12:10.722Z,24.51
2019-04-19T12:13:11.048Z,24.54
2019-04-19T12:14:12.144Z,24.48
2019-04-19T12:15:10.699Z,24.40
2019-04-19T12:16:10.941Z,24.42
2019-04-19T12:17:11.154Z,24.44
2019-04-19T12:18:10.670Z,24.63
2019-04-19T12:19:11.985Z,24.71
2019-04-19T12:20:11.328Z,24.86
2019-04-19T12:21:11.337Z,24.86
2019-04-19T12:22:10.739Z,24.95
2019-04-19T12:23:11.693Z,25.01
2019-04-19T12:24:10.882Z,25.24
2019-04-19T12:25:11.927Z,25.23
2019-04-19T12:26:11.551Z,25.11
2019-04-19T12:27:11.685Z,24.93
2019-04-19T12:28:11.796Z,25.01
2019-04-19T12:29:22.804Z,25.15
2019-04-19T12:30:11.555Z,25.08
2019-04-19T12:31:11.533Z,25.09
2019-04-19T12:32:11.747Z,25.23
2019-04-19T12:33:11.213Z,25.42
2019-04-19T12:34:11.666Z,25.49
2019-04-19T12:35:11.021Z,25.56
2019-04-19T12:36:10.955Z,25.40
2019-04-19T12:37:11.093Z,25.40
2019-04-19T12:38:10.744Z,25.49
2019-04-19T12:39:10.673Z,25.60
2019-04-19T12:40:10.910Z,25.75
2019-04-19T12:41:12.094Z,25.96
2019-04-19T12:42:11.253Z,26.17
2019-04-19T12:43:11.900Z,26.15
2019-04-19T12:44:11.085Z,26.08
2019-04-19T12:45:10.719Z,25.70
2019-04-19T12:46:10.960Z,25.42
2019-04-19T12:47:11.027Z,25.41
2019-04-19T12:48:11.792Z,25.60
2019-04-19T12:49:10.679Z,25.75
2019-04-19T12:50:11.760Z,25.96
2019-04-19T12:51:12.120Z,25.67
2019-04-19T12:52:10.749Z,25.63
2019-04-19T12:53:10.755Z,25.55
2019-04-19T12:54:11.991Z,25.34
2019-04-19T12:55:10.704Z,25.20
2019-04-19T12:56:11.758Z,25.24
2019-04-19T12:57:11.916Z,25.37
2019-04-19T12:58:10.686Z,25.23
2019-04-19T12:59:11.624Z,25.19
2019-04-19T13:00:11.681Z,25.34
2019-04-19T13:01:12.115Z,25.34
2019-04-19T13:02:11.715Z,25.45
2019-04-19T13:03:11.882Z,25.46
2019-04-19T13:04:10.778Z,25.55
2019-04-19T13:05:11.695Z,25.66
2019-04-19T13:06:11.481Z,25.75
2019-04-19T13:07:10.994Z,25.93
2019-04-19T13:08:11.517Z,26.19
2019-04-19T13:09:11.069Z,26.22
2019-04-19T13:10:11.094Z,26.00
2019-04-19T13:11:11.287Z,26.00
2019-04-19T13:12:10.846Z,26.21
2019-04-19T13:13:11.806Z,26.14
2019-04-19T13:14:11.993Z,25.99
2019-04-19T13:15:11.592Z,26.04
2019-04-19T13:16:10.719Z,26.18
2019-04-19T13:17:10.727Z,26.18
2019-04-19T13:18:11.997Z,26.29
2019-04-19T13:19:12.151Z,26.32
2019-04-19T13:20:19.098Z,26.55
2019-04-19T13:21:11.498Z,26.62
2019-04-19T13:22:10.819Z,26.82
2019-04-19T13:23:10.774Z,26.74
2019-04-19T13:24:10.997Z,26.85
2019-04-19T13:25:14.771Z,27.03
2019-04-19T13:26:11.373Z,27.01
2019-04-19T13:27:11.617Z,26.72
2019-04-19T13:28:11.288Z,26.62
2019-04-19T13:29:11.462Z,26.51
2019-04-19T13:30:22.521Z,26.40
2019-04-19T13:31:12.695Z,26.26
2019-04-19T13:32:11.576Z,25.93
2019-04-19T13:33:10.781Z,25.91
2019-04-19T13:34:11.588Z,25.82
2019-04-19T13:35:10.785Z,25.85
2019-04-19T13:36:11.155Z,25.74
2019-04-19T13:37:11.362Z,25.85
2019-04-19T13:38:10.787Z,25.85
2019-04-19T13:39:11.136Z,25.93
2019-04-19T13:40:10.700Z,25.89